Time;durP1;ratioP1;P1;durP2;ratioP2;P2;SDS_P1;SDS_P2;PMS_P1;PMS_P2;Temp;Humidity;BMP_temperature;BMP_pressure;BME280_temperature;BME280_humidity;BME280_pressure;Samples;Min_cycle;Max_cycle;Signal;HPM_P1;HPM_P2
2023/04/05 00:00:46;;;;;;;7.50;3.38;;;;;;;;;;7387732;19;20007;-70
2023/04/05 00:03:12;;;;;;;8.07;3.65;;;;;;;;;;7389682;19;20070;-69
2023/04/05 00:05:38;;;;;;;5.40;3.13;;;;;;;;;;7394160;19;20344;-69
2023/04/05 00:08:12;;;;;;;10.98;3.60;;;;;;;;;;7389734;19;20296;-69
2023/04/05 00:10:38;;;;;;;11.05;3.85;;;;;;;;;;7386943;19;20010;-69
2023/04/05 00:13:03;;;;;;;7.95;3.60;;;;;;;;;;7390414;19;20007;-69
2023/04/05 00:15:30;;;;;;;7.15;3.33;;;;;;;;;;7388207;19;19999;-68
2023/04/05 00:17:56;;;;;;;8.60;4.15;;;;;;;;;;7390049;19;20019;-69
2023/04/05 00:20:22;;;;;;;6.40;3.78;;;;;;;;;;7389754;19;20062;-69
2023/04/05 00:22:49;;;;;;;7.47;3.78;;;;;;;;;;7389049;19;20003;-70
2023/04/05 00:25:15;;;;;;;7.07;3.53;;;;;;;;;;7388186;19;20328;-68
2023/04/05 00:27:44;;;;;;;8.55;4.05;;;;;;;;;;7388816;19;20011;-68
2023/04/05 00:30:10;;;;;;;7.68;3.90;;;;;;;;;;7387288;19;20020;-68
2023/04/05 00:32:35;;;;;;;8.57;3.90;;;;;;;;;;7390025;19;19998;-68
2023/04/05 00:35:00;;;;;;;7.20;3.38;;;;;;;;;;7388139;19;20551;-69
2023/04/05 00:37:26;;;;;;;7.40;3.92;;;;;;;;;;7388973;19;20023;-68
2023/04/05 00:39:52;;;;;;;7.95;3.75;;;;;;;;;;7387418;19;20002;-69
2023/04/05 00:42:18;;;;;;;6.93;4.20;;;;;;;;;;7388607;19;20070;-69
2023/04/05 00:44:43;;;;;;;8.60;4.03;;;;;;;;;;7388697;19;20097;-69
2023/04/05 00:47:08;;;;;;;6.93;4.20;;;;;;;;;;7388520;19;20002;-68
2023/04/05 00:49:35;;;;;;;10.45;3.65;;;;;;;;;;7387584;19;20366;-69
2023/04/05 00:52:01;;;;;;;10.77;4.22;;;;;;;;;;7386379;19;20340;-69
2023/04/05 00:54:28;;;;;;;8.05;3.83;;;;;;;;;;7389906;19;20111;-69
2023/04/05 00:56:58;;;;;;;7.43;3.80;;;;;;;;;;7386159;19;20348;-68
2023/04/05 00:59:24;;;;;;;7.15;4.25;;;;;;;;;;7387538;19;19998;-69
2023/04/05 01:01:58;;;;;;;7.20;4.05;;;;;;;;;;7386249;19;20014;-69
2023/04/05 01:04:26;;;;;;;9.52;3.67;;;;;;;;;;7388006;19;20014;-69
2023/04/05 01:07:12;;;;;;;8.90;3.90;;;;;;;;;;7388386;19;19994;-69
2023/04/05 01:09:51;;;;;;;8.77;3.80;;;;;;;;;;7387448;19;20039;-69
2023/04/05 01:12:18;;;;;;;7.60;3.60;;;;;;;;;;7387663;19;19994;-68
2023/04/05 01:14:51;;;;;;;7.03;3.88;;;;;;;;;;7387563;19;19998;-69
2023/04/05 01:17:22;;;;;;;7.18;4.05;;;;;;;;;;7387920;19;20019;-68
2023/04/05 01:19:59;;;;;;;5.65;3.20;;;;;;;;;;7385277;19;19999;-69
2023/04/05 01:22:46;;;;;;;10.23;3.40;;;;;;;;;;7387254;19;19995;-69
2023/04/05 01:25:40;;;;;;;6.82;3.83;;;;;;;;;;7387689;19;20023;-69
2023/04/05 01:28:24;;;;;;;7.45;3.85;;;;;;;;;;7387552;19;19999;-68
2023/04/05 01:31:17;;;;;;;7.15;3.33;;;;;;;;;;7385162;19;19994;-69
2023/04/05 01:34:11;;;;;;;6.88;3.80;;;;;;;;;;7387367;19;19994;-69
2023/04/05 01:36:42;;;;;;;8.10;3.55;;;;;;;;;;7386093;19;20346;-69
2023/04/05 01:39:11;;;;;;;8.02;4.00;;;;;;;;;;7394300;19;20102;-69
2023/04/05 01:41:39;;;;;;;9.25;3.83;;;;;;;;;;7392758;19;20002;-69
2023/04/05 01:44:04;;;;;;;9.85;3.70;;;;;;;;;;7395127;19;20614;-69
2023/04/05 01:46:30;;;;;;;9.27;3.60;;;;;;;;;;7394764;19;19995;-68
2023/04/05 01:48:55;;;;;;;10.88;4.07;;;;;;;;;;7394319;19;20006;-69
2023/04/05 01:51:20;;;;;;;9.32;3.85;;;;;;;;;;7394037;19;20002;-69
2023/04/05 01:53:46;;;;;;;7.78;3.90;;;;;;;;;;7394398;19;20019;-69
2023/04/05 01:56:11;;;;;;;7.57;3.80;;;;;;;;;;7391990;19;20027;-69
2023/04/05 01:58:37;;;;;;;8.02;3.78;;;;;;;;;;7394488;19;19991;-68
2023/04/05 02:01:02;;;;;;;7.13;4.10;;;;;;;;;;7393728;19;20007;-68
2023/04/05 02:03:28;;;;;;;6.70;3.80;;;;;;;;;;7396507;19;20024;-69
2023/04/05 02:05:53;;;;;;;10.50;3.90;;;;;;;;;;7392873;19;20482;-69
2023/04/05 02:08:18;;;;;;;10.00;3.90;;;;;;;;;;7393980;19;20012;-68
2023/04/05 02:10:44;;;;;;;10.68;3.83;;;;;;;;;;7390596;19;20061;-68
2023/04/05 02:13:10;;;;;;;7.93;4.00;;;;;;;;;;7395638;19;19999;-68
2023/04/05 02:15:36;;;;;;;9.65;3.65;;;;;;;;;;7390322;19;19998;-68
2023/04/05 02:18:02;;;;;;;9.70;4.38;;;;;;;;;;7393380;19;20468;-68
2023/04/05 02:20:28;;;;;;;10.52;4.30;;;;;;;;;;7394438;19;20009;-68
2023/04/05 02:22:54;;;;;;;8.18;3.78;;;;;;;;;;7392955;19;19995;-68
2023/04/05 02:25:20;;;;;;;8.23;3.80;;;;;;;;;;7391037;19;20460;-69
2023/04/05 02:27:45;;;;;;;8.20;3.85;;;;;;;;;;7394102;19;20014;-67
2023/04/05 02:30:14;;;;;;;9.93;4.07;;;;;;;;;;7390172;19;20002;-67
2023/04/05 02:32:46;;;;;;;12.85;4.03;;;;;;;;;;7392850;19;20002;-68
2023/04/05 02:35:12;;;;;;;10.52;3.70;;;;;;;;;;7390173;19;19999;-68
2023/04/05 02:37:37;;;;;;;10.40;4.00;;;;;;;;;;7392713;19;19998;-68
2023/04/05 02:40:09;;;;;;;9.60;4.35;;;;;;;;;;7390546;19;20532;-68
2023/04/05 02:42:35;;;;;;;11.30;4.05;;;;;;;;;;7392369;19;20018;-67
2023/04/05 02:45:00;;;;;;;10.18;4.03;;;;;;;;;;7392975;19;20397;-68
2023/04/05 02:47:26;;;;;;;6.65;3.78;;;;;;;;;;7391562;19;20001;-68
2023/04/05 02:49:51;;;;;;;6.90;4.10;;;;;;;;;;7393730;19;20005;-68
2023/04/05 02:52:16;;;;;;;7.25;3.70;;;;;;;;;;7389673;19;19998;-67
2023/04/05 02:54:43;;;;;;;9.95;3.65;;;;;;;;;;7391160;19;20001;-67
2023/04/05 02:57:11;;;;;;;8.15;3.60;;;;;;;;;;7392202;19;19999;-67
2023/04/05 02:59:37;;;;;;;7.93;3.70;;;;;;;;;;7390271;19;20003;-69
2023/04/05 03:02:04;;;;;;;7.20;4.10;;;;;;;;;;7394604;19;19991;-69
2023/04/05 03:04:29;;;;;;;7.45;3.70;;;;;;;;;;7394901;19;19998;-67
2023/04/05 03:06:56;;;;;;;6.47;3.50;;;;;;;;;;7391727;19;20014;-67
2023/04/05 03:09:22;;;;;;;8.77;3.78;;;;;;;;;;7390483;19;20003;-68
2023/04/05 03:11:47;;;;;;;10.32;4.13;;;;;;;;;;7390820;19;20447;-68
2023/04/05 03:14:12;;;;;;;9.25;3.67;;;;;;;;;;7391088;19;20002;-68
2023/04/05 03:16:38;;;;;;;9.55;3.70;;;;;;;;;;7386946;19;20009;-68
2023/04/05 03:19:05;;;;;;;8.32;3.70;;;;;;;;;;7390777;19;20054;-68
2023/04/05 03:21:31;;;;;;;8.35;4.20;;;;;;;;;;7388893;19;20025;-68
2023/04/05 03:23:56;;;;;;;11.20;3.97;;;;;;;;;;7394563;19;20360;-67
2023/04/05 03:26:22;;;;;;;10.23;4.20;;;;;;;;;;7393753;19;20103;-67
2023/04/05 03:28:47;;;;;;;7.70;4.00;;;;;;;;;;7394410;19;20019;-67
2023/04/05 03:31:13;;;;;;;9.55;3.90;;;;;;;;;;7393372;19;20013;-67
2023/04/05 03:33:38;;;;;;;7.25;3.83;;;;;;;;;;7388700;19;19998;-67
2023/04/05 03:36:04;;;;;;;6.30;3.78;;;;;;;;;;7388968;19;19998;-68
2023/04/05 03:38:31;;;;;;;5.75;3.45;;;;;;;;;;7390597;19;20003;-67
2023/04/05 03:40:56;;;;;;;7.18;3.95;;;;;;;;;;7388266;19;20054;-69
2023/04/05 03:43:22;;;;;;;8.15;3.58;;;;;;;;;;7388774;19;20389;-68
2023/04/05 03:45:47;;;;;;;7.57;3.80;;;;;;;;;;7390256;19;20044;-68
2023/04/05 03:48:12;;;;;;;8.82;3.85;;;;;;;;;;7390377;19;19998;-68
2023/04/05 03:50:38;;;;;;;7.18;3.92;;;;;;;;;;7386442;19;20062;-68
2023/04/05 03:53:03;;;;;;;10.52;4.22;;;;;;;;;;7390463;19;20006;-68
2023/04/05 03:55:28;;;;;;;7.25;3.78;;;;;;;;;;7389409;19;20006;-68
2023/04/05 03:57:54;;;;;;;9.27;4.20;;;;;;;;;;7388686;19;20002;-68
2023/04/05 04:00:22;;;;;;;8.13;4.18;;;;;;;;;;7383565;19;20026;-68
2023/04/05 04:02:48;;;;;;;6.93;3.80;;;;;;;;;;7393753;19;19994;-69
2023/04/05 04:05:15;;;;;;;7.55;3.97;;;;;;;;;;7391380;19;19999;-69
2023/04/05 04:07:42;;;;;;;8.65;4.00;;;;;;;;;;7391582;19;20002;-67
2023/04/05 04:10:09;;;;;;;6.68;3.97;;;;;;;;;;7389847;19;19998;-68
2023/04/05 04:12:34;;;;;;;11.90;4.03;;;;;;;;;;7391714;19;20020;-69
2023/04/05 04:15:00;;;;;;;9.40;3.72;;;;;;;;;;7393346;19;20345;-69
2023/04/05 04:17:30;;;;;;;6.80;3.80;;;;;;;;;;7391824;19;20021;-69
2023/04/05 04:19:56;;;;;;;9.40;4.20;;;;;;;;;;7392741;19;20455;-69
2023/04/05 04:22:25;;;;;;;9.50;3.88;;;;;;;;;;7392109;19;20017;-68
2023/04/05 04:24:54;;;;;;;9.07;3.63;;;;;;;;;;7391118;19;20006;-67
2023/04/05 04:27:19;;;;;;;6.78;3.83;;;;;;;;;;7391711;19;19999;-70
2023/04/05 04:29:47;;;;;;;9.52;4.53;;;;;;;;;;7390527;19;20009;-68
2023/04/05 04:32:14;;;;;;;10.10;4.25;;;;;;;;;;7388291;19;20361;-69
2023/04/05 04:34:46;;;;;;;10.00;4.07;;;;;;;;;;7392521;19;20448;-69
2023/04/05 04:37:17;;;;;;;6.43;3.50;;;;;;;;;;7394956;19;20026;-68
2023/04/05 04:39:49;;;;;;;9.30;4.28;;;;;;;;;;7390755;19;20017;-69
2023/04/05 04:42:18;;;;;;;7.15;4.00;;;;;;;;;;7392440;19;20005;-70
2023/04/05 04:44:44;;;;;;;9.35;3.78;;;;;;;;;;7392147;19;20014;-69
2023/04/05 04:47:16;;;;;;;8.25;3.90;;;;;;;;;;7392656;19;19991;-72
2023/04/05 04:49:44;;;;;;;6.60;3.67;;;;;;;;;;7392924;19;20002;-69
2023/04/05 04:52:10;;;;;;;7.30;4.25;;;;;;;;;;7392009;19;20006;-69
2023/04/05 04:54:35;;;;;;;8.18;4.10;;;;;;;;;;7390654;19;20364;-69
2023/04/05 04:57:01;;;;;;;8.18;4.25;;;;;;;;;;7387358;19;20003;-69
2023/04/05 04:59:27;;;;;;;9.48;4.30;;;;;;;;;;7390448;19;20526;-71
2023/04/05 05:01:53;;;;;;;13.50;4.60;;;;;;;;;;7389868;19;20403;-71
2023/04/05 05:04:18;;;;;;;7.07;3.95;;;;;;;;;;7392680;19;20074;-71
2023/04/05 05:06:43;;;;;;;6.90;4.13;;;;;;;;;;7392269;19;20038;-72
2023/04/05 05:09:09;;;;;;;7.70;3.95;;;;;;;;;;7388392;19;19998;-71
2023/04/05 05:11:34;;;;;;;8.80;4.20;;;;;;;;;;7389803;19;19994;-71
2023/04/05 05:14:00;;;;;;;8.57;4.10;;;;;;;;;;7392181;19;19995;-72
2023/04/05 05:16:26;;;;;;;9.30;4.43;;;;;;;;;;7386795;19;20094;-71
2023/04/05 05:18:52;;;;;;;7.18;4.32;;;;;;;;;;7390490;19;20519;-71
2023/04/05 05:21:17;;;;;;;10.00;4.45;;;;;;;;;;7389109;19;19995;-71
2023/04/05 05:23:43;;;;;;;7.47;4.03;;;;;;;;;;7390251;19;20002;-72
2023/04/05 05:26:08;;;;;;;11.02;4.40;;;;;;;;;;7385393;19;20353;-70
2023/04/05 05:28:52;;;;;;;9.07;4.20;;;;;;;;;;7385422;19;19994;-69
2023/04/05 05:31:18;;;;;;;6.32;3.80;;;;;;;;;;7374978;19;20031;-69
2023/04/05 05:33:48;;;;;;;7.15;4.10;;;;;;;;;;7379249;19;20002;-71
2023/04/05 05:36:13;;;;;;;9.05;3.83;;;;;;;;;;7378321;19;20294;-69
2023/04/05 05:38:38;;;;;;;11.15;4.30;;;;;;;;;;7380088;19;20005;-71
2023/04/05 05:41:04;;;;;;;10.07;3.58;;;;;;;;;;7377611;19;20006;-70
2023/04/05 05:43:29;;;;;;;5.97;3.92;;;;;;;;;;7380374;19;20002;-70
2023/04/05 05:45:55;;;;;;;8.55;3.67;;;;;;;;;;7385850;19;20003;-71
2023/04/05 05:48:20;;;;;;;8.48;3.67;;;;;;;;;;7385489;19;19999;-71
2023/04/05 05:50:47;;;;;;;7.45;3.70;;;;;;;;;;7383845;19;20030;-70
2023/04/05 05:53:13;;;;;;;6.78;3.63;;;;;;;;;;7394761;19;20007;-70
2023/04/05 05:55:38;;;;;;;8.25;3.88;;;;;;;;;;7386882;19;19995;-70
2023/04/05 05:58:03;;;;;;;7.50;2.67;;;;;;;;;;7388294;19;20007;-70
2023/04/05 06:00:29;;;;;;;6.22;3.35;;;;;;;;;;7385474;19;20054;-70
2023/04/05 06:02:54;;;;;;;6.20;3.80;;;;;;;;;;7387007;19;19998;-70
2023/04/05 06:05:20;;;;;;;6.93;4.05;;;;;;;;;;7387715;19;20072;-69
2023/04/05 06:07:45;;;;;;;4.97;3.20;;;;;;;;;;7390802;19;19999;-70
2023/04/05 06:10:12;;;;;;;7.40;3.75;;;;;;;;;;7383707;19;20434;-70
2023/04/05 06:12:37;;;;;;;7.10;3.88;;;;;;;;;;7386489;19;20003;-70
2023/04/05 06:15:03;;;;;;;10.43;4.55;;;;;;;;;;7385677;19;20002;-69
2023/04/05 06:17:28;;;;;;;7.43;4.28;;;;;;;;;;7386968;19;20009;-71
2023/04/05 06:19:54;;;;;;;8.13;3.90;;;;;;;;;;7384065;19;20468;-71
2023/04/05 06:22:21;;;;;;;7.53;3.40;;;;;;;;;;7385815;19;20380;-70
2023/04/05 06:24:47;;;;;;;8.90;3.80;;;;;;;;;;7393224;19;19994;-71
2023/04/05 06:27:13;;;;;;;6.80;3.40;;;;;;;;;;7396387;19;20390;-71
2023/04/05 06:29:38;;;;;;;6.57;3.80;;;;;;;;;;7392588;19;19999;-70
2023/04/05 06:32:04;;;;;;;8.85;3.92;;;;;;;;;;7391570;19;20083;-70
2023/04/05 06:34:29;;;;;;;7.53;3.78;;;;;;;;;;7395406;19;19987;-70
2023/04/05 06:36:55;;;;;;;7.53;3.78;;;;;;;;;;7396323;19;19993;-70
2023/04/05 06:39:20;;;;;;;8.43;3.67;;;;;;;;;;7393042;19;20006;-70
2023/04/05 06:41:46;;;;;;;8.15;4.22;;;;;;;;;;7392606;19;20001;-69
2023/04/05 06:44:11;;;;;;;9.38;3.90;;;;;;;;;;7393015;19;20511;-71
2023/04/05 06:46:36;;;;;;;8.15;3.67;;;;;;;;;;7393375;19;19990;-71
2023/04/05 06:49:02;;;;;;;8.30;4.05;;;;;;;;;;7393808;19;20359;-69
2023/04/05 06:51:28;;;;;;;9.00;3.65;;;;;;;;;;7393373;19;19998;-69
2023/04/05 06:53:54;;;;;;;12.02;3.85;;;;;;;;;;7391094;19;20482;-70
2023/04/05 06:56:20;;;;;;;9.43;3.78;;;;;;;;;;7388995;19;19998;-71
2023/04/05 06:58:46;;;;;;;7.22;4.28;;;;;;;;;;7393142;19;20566;-71
2023/04/05 07:01:11;;;;;;;7.63;4.47;;;;;;;;;;7390445;19;20011;-71
2023/04/05 07:03:36;;;;;;;6.80;3.53;;;;;;;;;;7393097;19;20001;-69
2023/04/05 07:06:03;;;;;;;6.05;3.55;;;;;;;;;;7392914;19;19998;-70
2023/04/05 07:08:31;;;;;;;6.63;3.60;;;;;;;;;;7396822;19;20020;-70
2023/04/05 07:10:57;;;;;;;7.18;3.67;;;;;;;;;;7390220;19;20007;-70
2023/04/05 07:13:24;;;;;;;7.03;3.58;;;;;;;;;;7392635;19;20018;-70
2023/04/05 07:15:50;;;;;;;7.78;4.00;;;;;;;;;;7391493;19;19999;-69
2023/04/05 07:18:15;;;;;;;7.53;3.30;;;;;;;;;;7392363;19;20030;-69
2023/04/05 07:20:41;;;;;;;6.10;3.50;;;;;;;;;;7390205;19;19999;-71
2023/04/05 07:23:06;;;;;;;8.73;3.40;;;;;;;;;;7391996;19;20028;-70
2023/04/05 07:25:32;;;;;;;13.88;3.88;;;;;;;;;;7391951;19;20002;-71
2023/04/05 07:27:57;;;;;;;3.85;2.20;;;;;;;;;;7391672;19;20345;-70
2023/04/05 07:30:24;;;;;;;4.47;2.88;;;;;;;;;;7389922;19;20009;-71
2023/04/05 07:32:50;;;;;;;6.50;3.25;;;;;;;;;;7391858;19;20388;-69
2023/04/05 07:35:15;;;;;;;6.22;3.50;;;;;;;;;;7386871;19;19998;-70
2023/04/05 07:37:41;;;;;;;5.45;3.17;;;;;;;;;;7391291;19;20036;-70
2023/04/05 07:40:07;;;;;;;6.65;3.60;;;;;;;;;;7389535;19;19999;-69
2023/04/05 07:42:32;;;;;;;7.20;3.20;;;;;;;;;;7390495;19;19998;-70
2023/04/05 07:44:58;;;;;;;5.25;3.17;;;;;;;;;;7390890;19;20062;-70
2023/04/05 07:47:23;;;;;;;8.85;3.03;;;;;;;;;;7390909;19;20015;-71
2023/04/05 07:49:48;;;;;;;7.00;3.22;;;;;;;;;;7389812;19;20022;-71
2023/04/05 07:52:14;;;;;;;6.85;3.13;;;;;;;;;;7389981;19;19994;-71
2023/04/05 07:54:42;;;;;;;7.70;3.47;;;;;;;;;;7388809;19;20294;-71
2023/04/05 07:57:08;;;;;;;8.30;3.63;;;;;;;;;;7391050;19;20365;-70
2023/04/05 07:59:33;;;;;;;5.90;3.25;;;;;;;;;;7389964;19;20011;-70
2023/04/05 08:01:58;;;;;;;7.38;3.33;;;;;;;;;;7390384;19;20512;-71
2023/04/05 08:04:26;;;;;;;5.55;3.08;;;;;;;;;;7388299;19;20795;-72
2023/04/05 08:06:52;;;;;;;8.30;3.35;;;;;;;;;;7394833;19;20015;-72
2023/04/05 08:09:17;;;;;;;9.48;3.67;;;;;;;;;;7390226;19;20536;-70
2023/04/05 08:11:43;;;;;;;7.20;3.50;;;;;;;;;;7390114;19;20368;-71
2023/04/05 08:14:09;;;;;;;9.35;3.88;;;;;;;;;;7390106;19;20554;-72
2023/04/05 08:16:34;;;;;;;6.25;3.50;;;;;;;;;;7388247;19;20056;-71
2023/04/05 08:18:59;;;;;;;7.28;3.58;;;;;;;;;;7389669;19;20003;-71
2023/04/05 08:21:25;;;;;;;8.65;3.75;;;;;;;;;;7387445;19;20003;-71
2023/04/05 08:23:50;;;;;;;7.50;3.42;;;;;;;;;;7389535;19;20003;-72
2023/04/05 08:26:16;;;;;;;7.93;3.90;;;;;;;;;;7387592;19;19999;-71
2023/04/05 08:28:42;;;;;;;9.52;3.65;;;;;;;;;;7389613;19;20006;-72
2023/04/05 08:31:07;;;;;;;8.45;3.70;;;;;;;;;;7385963;19;20003;-72
2023/04/05 08:33:33;;;;;;;8.98;4.40;;;;;;;;;;7391118;19;20448;-71
2023/04/05 08:36:04;;;;;;;7.95;3.90;;;;;;;;;;7387828;19;20122;-70
2023/04/05 08:38:29;;;;;;;5.20;3.17;;;;;;;;;;7389312;19;20003;-71
2023/04/05 08:40:55;;;;;;;7.40;3.45;;;;;;;;;;7387605;19;20005;-71
2023/04/05 08:43:35;;;;;;;7.30;3.95;;;;;;;;;;7389204;19;20009;-70
2023/04/05 08:46:01;;;;;;;7.13;3.77;;;;;;;;;;7388489;19;20003;-71
2023/04/05 08:48:30;;;;;;;9.48;3.78;;;;;;;;;;7387177;19;20003;-70
2023/04/05 08:50:55;;;;;;;7.53;3.80;;;;;;;;;;7387122;19;20003;-71
2023/04/05 08:53:21;;;;;;;7.03;3.63;;;;;;;;;;7389237;19;20467;-71
2023/04/05 08:55:52;;;;;;;6.85;3.47;;;;;;;;;;7387516;19;20407;-71
2023/04/05 08:58:20;;;;;;;7.55;3.22;;;;;;;;;;7390481;19;19995;-71
2023/04/05 09:00:46;;;;;;;12.55;3.80;;;;;;;;;;7386711;19;20019;-70
2023/04/05 09:03:16;;;;;;;6.30;3.30;;;;;;;;;;7388233;19;19999;-70
2023/04/05 09:05:47;;;;;;;8.90;2.70;;;;;;;;;;7387987;19;20003;-70
2023/04/05 09:08:13;;;;;;;8.10;3.22;;;;;;;;;;7388143;19;20003;-70
2023/04/05 09:10:39;;;;;;;4.68;3.30;;;;;;;;;;7386597;19;20002;-70
2023/04/05 09:13:05;;;;;;;6.05;2.88;;;;;;;;;;7388679;19;20002;-71
2023/04/05 09:15:30;;;;;;;7.00;2.90;;;;;;;;;;7387717;19;19999;-71
2023/04/05 09:17:56;;;;;;;5.97;2.95;;;;;;;;;;7388034;19;20022;-71
2023/04/05 09:20:21;;;;;;;5.45;2.55;;;;;;;;;;7386480;19;20003;-71
2023/04/05 09:22:47;;;;;;;5.35;2.95;;;;;;;;;;7388240;19;20006;-70
2023/04/05 09:25:30;;;;;;;6.47;3.08;;;;;;;;;;7388212;19;20002;-70
2023/04/05 09:27:56;;;;;;;6.03;2.85;;;;;;;;;;7388998;19;19999;-70
2023/04/05 09:30:22;;;;;;;5.00;2.65;;;;;;;;;;7387291;19;20486;-71
2023/04/05 09:32:51;;;;;;;7.95;2.90;;;;;;;;;;7388450;19;20006;-70
2023/04/05 09:35:24;;;;;;;5.05;2.97;;;;;;;;;;7387963;19;20010;-72
2023/04/05 09:37:54;;;;;;;6.28;3.00;;;;;;;;;;7388100;19;20444;-70
2023/04/05 09:40:21;;;;;;;4.15;2.55;;;;;;;;;;7386686;19;20010;-71
2023/04/05 09:42:47;;;;;;;6.85;2.90;;;;;;;;;;7388363;19;20003;-71
2023/04/05 09:45:13;;;;;;;4.68;2.50;;;;;;;;;;7386197;19;19998;-71
2023/04/05 09:47:40;;;;;;;5.65;3.25;;;;;;;;;;7385883;19;20464;-71
2023/04/05 09:50:15;;;;;;;6.25;2.80;;;;;;;;;;7385024;19;20111;-71
2023/04/05 09:52:40;;;;;;;5.10;2.40;;;;;;;;;;7387896;19;20003;-71
2023/04/05 09:55:06;;;;;;;5.30;2.60;;;;;;;;;;7388973;19;19999;-70
2023/04/05 09:57:33;;;;;;;5.70;2.63;;;;;;;;;;7387724;19;19999;-70
2023/04/05 09:59:59;;;;;;;5.72;2.60;;;;;;;;;;7404340;19;20026;-70
2023/04/05 10:02:25;;;;;;;4.65;2.72;;;;;;;;;;7406504;19;19994;-70
2023/04/05 10:04:50;;;;;;;6.68;3.75;;;;;;;;;;7403866;19;20467;-70
2023/04/05 10:07:17;;;;;;;7.45;3.05;;;;;;;;;;7400531;19;20003;-71
2023/04/05 10:09:46;;;;;;;8.60;2.95;;;;;;;;;;7396879;19;20002;-71
2023/04/05 10:12:20;;;;;;;4.47;2.80;;;;;;;;;;7393771;19;20019;-72
2023/04/05 10:14:45;;;;;;;5.13;2.60;;;;;;;;;;7393874;19;19999;-70
2023/04/05 10:17:27;;;;;;;5.75;3.63;;;;;;;;;;7394476;19;19994;-71
2023/04/05 10:20:04;;;;;;;8.13;3.28;;;;;;;;;;7393479;19;20369;-72
2023/04/05 10:22:59;;;;;;;7.43;2.92;;;;;;;;;;7395504;19;20460;-70
2023/04/05 10:25:39;;;;;;;6.32;3.22;;;;;;;;;;7392209;19;20044;-70
2023/04/05 10:28:15;;;;;;;7.15;3.58;;;;;;;;;;7395048;19;19998;-71
2023/04/05 10:30:47;;;;;;;5.43;3.08;;;;;;;;;;7391579;19;19999;-71
2023/04/05 10:33:18;;;;;;;6.97;3.60;;;;;;;;;;7393687;19;19999;-72
2023/04/05 10:35:49;;;;;;;5.32;3.25;;;;;;;;;;7392246;19;20466;-71
2023/04/05 10:38:25;;;;;;;6.88;3.22;;;;;;;;;;7391815;19;20492;-72
2023/04/05 10:40:54;;;;;;;8.10;3.65;;;;;;;;;;7391127;19;20003;-72
2023/04/05 10:43:23;;;;;;;8.95;3.67;;;;;;;;;;7396261;19;19999;-71
2023/04/05 10:45:52;;;;;;;7.22;3.72;;;;;;;;;;7393097;19;20006;-71
2023/04/05 10:48:26;;;;;;;9.27;3.85;;;;;;;;;;7393110;19;20578;-71
2023/04/05 10:50:52;;;;;;;6.32;3.28;;;;;;;;;;7390474;19;20461;-71
2023/04/05 10:53:20;;;;;;;6.07;3.05;;;;;;;;;;7397027;19;19999;-70
2023/04/05 10:55:48;;;;;;;7.43;3.38;;;;;;;;;;7390900;19;20002;-71
2023/04/05 10:58:14;;;;;;;5.95;3.22;;;;;;;;;;7390264;19;20447;-71
2023/04/05 11:00:41;;;;;;;7.68;3.78;;;;;;;;;;7388605;19;20026;-72
2023/04/05 11:03:06;;;;;;;5.97;3.58;;;;;;;;;;7389759;19;20010;-72
2023/04/05 11:05:34;;;;;;;6.20;3.20;;;;;;;;;;7389623;19;20663;-72
2023/04/05 11:08:07;;;;;;;7.68;3.08;;;;;;;;;;7389754;19;20436;-71
2023/04/05 11:10:37;;;;;;;7.22;2.90;;;;;;;;;;7387214;19;20430;-71
2023/04/05 11:13:04;;;;;;;6.97;3.10;;;;;;;;;;7390170;19;20186;-70
2023/04/05 11:15:31;;;;;;;9.73;3.10;;;;;;;;;;7388599;19;20019;-71
2023/04/05 11:18:04;;;;;;;4.70;2.38;;;;;;;;;;7389554;19;19999;-71
2023/04/05 11:20:42;;;;;;;5.40;3.00;;;;;;;;;;7387417;19;20002;-71
2023/04/05 11:23:18;;;;;;;5.20;2.80;;;;;;;;;;7387586;19;20081;-71
2023/04/05 11:25:51;;;;;;;8.10;3.20;;;;;;;;;;7389589;19;19999;-72
2023/04/05 11:28:38;;;;;;;5.03;2.80;;;;;;;;;;7389556;19;20009;-72
2023/04/05 11:31:13;;;;;;;6.22;3.10;;;;;;;;;;7386554;19;20005;-71
2023/04/05 11:33:45;;;;;;;9.43;3.25;;;;;;;;;;7389073;19;19998;-71
2023/04/05 11:36:11;;;;;;;7.40;2.70;;;;;;;;;;7387474;19;19998;-72
2023/04/05 11:38:37;;;;;;;4.85;2.90;;;;;;;;;;7389289;19;20483;-72
2023/04/05 11:41:16;;;;;;;6.75;3.42;;;;;;;;;;7387267;19;20043;-70
2023/04/05 11:43:50;;;;;;;4.70;2.78;;;;;;;;;;7389362;19;20350;-72
2023/04/05 11:46:17;;;;;;;6.47;3.17;;;;;;;;;;7388827;19;20042;-71
2023/04/05 11:48:42;;;;;;;7.43;3.22;;;;;;;;;;7388716;19;20074;-71
2023/04/05 11:51:09;;;;;;;8.02;3.33;;;;;;;;;;7384119;19;19998;-73
2023/04/05 11:53:35;;;;;;;5.65;2.80;;;;;;;;;;7388775;19;20011;-72
2023/04/05 11:56:11;;;;;;;4.88;3.05;;;;;;;;;;7391651;19;20009;-71
2023/04/05 11:58:37;;;;;;;4.93;2.70;;;;;;;;;;7386211;19;20013;-71
2023/04/05 12:01:05;;;;;;;5.82;3.20;;;;;;;;;;7249010;19;2721764;-71
2023/04/05 12:03:31;;;;;;;5.30;2.97;;;;;;;;;;7390441;19;19994;-71
2023/04/05 12:05:58;;;;;;;4.50;2.67;;;;;;;;;;7390391;19;20016;-70
2023/04/05 12:08:40;;;;;;;5.30;3.00;;;;;;;;;;7390378;19;20062;-70
2023/04/05 12:11:07;;;;;;;6.15;2.97;;;;;;;;;;7391939;19;20022;-72
2023/04/05 12:13:37;;;;;;;5.30;2.90;;;;;;;;;;7390251;19;20002;-71
2023/04/05 12:16:04;;;;;;;6.45;3.30;;;;;;;;;;7389146;19;20007;-73
2023/04/05 12:18:31;;;;;;;5.85;3.35;;;;;;;;;;7392422;19;20019;-71
2023/04/05 12:20:57;;;;;;;9.00;3.00;;;;;;;;;;7384646;19;20006;-72
2023/04/05 12:23:24;;;;;;;6.10;2.78;;;;;;;;;;7389825;19;20006;-70
2023/04/05 12:25:50;;;;;;;7.03;3.03;;;;;;;;;;7389979;19;20079;-72
2023/04/05 12:28:16;;;;;;;7.40;2.90;;;;;;;;;;7389948;19;20515;-73
2023/04/05 12:30:57;;;;;;;4.78;2.67;;;;;;;;;;7387904;19;20009;-72
2023/04/05 12:33:32;;;;;;;5.20;2.60;;;;;;;;;;7389558;19;20031;-71
2023/04/05 12:36:03;;;;;;;7.03;2.85;;;;;;;;;;7388610;19;20013;-72
2023/04/05 12:38:29;;;;;;;6.70;3.08;;;;;;;;;;7391179;19;19999;-70
2023/04/05 12:40:59;;;;;;;5.10;2.60;;;;;;;;;;7387484;19;20023;-72
2023/04/05 12:43:25;;;;;;;5.18;2.65;;;;;;;;;;7389563;19;20023;-71
2023/04/05 12:45:54;;;;;;;5.93;2.60;;;;;;;;;;7389732;19;20277;-70
2023/04/05 12:48:21;;;;;;;5.55;2.88;;;;;;;;;;7389648;19;20424;-71
2023/04/05 12:50:50;;;;;;;6.28;3.00;;;;;;;;;;7387371;19;20475;-72
2023/04/05 12:53:19;;;;;;;3.97;2.65;;;;;;;;;;7389459;19;19999;-71
2023/04/05 12:55:51;;;;;;;4.28;2.50;;;;;;;;;;7388344;19;20003;-72
2023/04/05 12:58:18;;;;;;;8.75;3.10;;;;;;;;;;7393473;19;20007;-72
2023/04/05 13:00:44;;;;;;;5.55;2.65;;;;;;;;;;7387443;19;20030;-72
2023/04/05 13:03:19;;;;;;;5.88;2.42;;;;;;;;;;7389294;19;20006;-71
2023/04/05 13:05:48;;;;;;;7.72;3.28;;;;;;;;;;7389465;19;20003;-72
2023/04/05 13:08:17;;;;;;;6.35;2.80;;;;;;;;;;7389354;19;20002;-71
2023/04/05 13:10:43;;;;;;;6.18;3.08;;;;;;;;;;7388014;19;20523;-72
2023/04/05 13:13:09;;;;;;;6.70;2.85;;;;;;;;;;7389598;19;19998;-72
2023/04/05 13:15:34;;;;;;;6.95;3.10;;;;;;;;;;7387790;19;19998;-73
2023/04/05 13:18:00;;;;;;;11.15;3.78;;;;;;;;;;7388304;19;20002;-71
2023/04/05 13:20:25;;;;;;;6.25;2.92;;;;;;;;;;7386810;19;20007;-72
2023/04/05 13:22:50;;;;;;;7.65;3.03;;;;;;;;;;7388045;19;20460;-71
2023/04/05 13:25:16;;;;;;;6.35;3.03;;;;;;;;;;7388092;19;20038;-71
2023/04/05 13:27:42;;;;;;;5.93;3.78;;;;;;;;;;7387897;19;20074;-71
2023/04/05 13:30:08;;;;;;;6.38;3.55;;;;;;;;;;7386601;19;20040;-72
2023/04/05 13:32:33;;;;;;;5.90;2.95;;;;;;;;;;7385776;19;19998;-71
2023/04/05 13:34:58;;;;;;;6.38;2.92;;;;;;;;;;7387662;19;19994;-72
2023/04/05 13:37:24;;;;;;;4.82;2.97;;;;;;;;;;7387638;19;20336;-72
2023/04/05 13:39:49;;;;;;;6.70;3.13;;;;;;;;;;7387283;19;20010;-72
2023/04/05 13:42:15;;;;;;;6.95;3.92;;;;;;;;;;7387059;19;20325;-72
2023/04/05 13:44:40;;;;;;;4.45;3.00;;;;;;;;;;7387313;19;20006;-72
2023/04/05 13:47:06;;;;;;;6.70;3.30;;;;;;;;;;7387011;19;20006;-72
2023/04/05 13:49:31;;;;;;;5.78;2.95;;;;;;;;;;7387275;19;20003;-72
2023/04/05 13:51:57;;;;;;;5.70;3.30;;;;;;;;;;7386738;19;20024;-72
2023/04/05 13:54:22;;;;;;;5.63;3.00;;;;;;;;;;7387275;19;19998;-72
2023/04/05 13:56:47;;;;;;;4.97;2.80;;;;;;;;;;7385276;19;20350;-72
2023/04/05 13:59:18;;;;;;;6.82;3.63;;;;;;;;;;7386723;19;20010;-73
2023/04/05 14:01:43;;;;;;;5.90;3.35;;;;;;;;;;7391069;19;20006;-71
2023/04/05 14:04:09;;;;;;;6.57;3.00;;;;;;;;;;7387121;19;20414;-72
2023/04/05 14:06:34;;;;;;;6.10;3.53;;;;;;;;;;7386316;19;20468;-71
2023/04/05 14:08:59;;;;;;;6.90;4.22;;;;;;;;;;7387957;19;20467;-70
2023/04/05 14:11:25;;;;;;;7.15;3.42;;;;;;;;;;7377265;19;20547;-70
2023/04/05 14:13:50;;;;;;;6.22;3.28;;;;;;;;;;7385204;19;20003;-69
2023/04/05 14:16:16;;;;;;;6.32;3.15;;;;;;;;;;7384091;19;20022;-70
2023/04/05 14:18:41;;;;;;;5.38;3.03;;;;;;;;;;7389536;19;20094;-69
2023/04/05 14:21:06;;;;;;;7.18;3.25;;;;;;;;;;7386049;19;19990;-68
2023/04/05 14:23:32;;;;;;;6.50;3.05;;;;;;;;;;7394744;19;20003;-68
2023/04/05 14:25:58;;;;;;;8.40;3.42;;;;;;;;;;7393329;19;20024;-68
2023/04/05 14:28:23;;;;;;;6.63;3.30;;;;;;;;;;7385654;19;20003;-68
2023/04/05 14:30:49;;;;;;;5.82;2.92;;;;;;;;;;7387485;19;19994;-69
2023/04/05 14:33:15;;;;;;;5.15;3.20;;;;;;;;;;7385543;19;20001;-68
2023/04/05 14:35:41;;;;;;;5.82;3.10;;;;;;;;;;7384860;19;20006;-68
2023/04/05 14:38:06;;;;;;;7.05;3.20;;;;;;;;;;7385422;19;20448;-71
2023/04/05 14:40:31;;;;;;;8.18;3.40;;;;;;;;;;7383658;19;19998;-70
2023/04/05 14:42:57;;;;;;;6.45;2.88;;;;;;;;;;7385230;19;20456;-69